aviador You're here:

CYBQ Decoded Metar

in
Report Time2017-07-24 16:00:00
UTC Time2017-07-24 16:35:50
Flight Rules vfr VFR
Wind110° at 10 kt
W.Decomp.*RWY 07: 7.7 kt HW 6.4 kt RCW
W.Rank110° ranks 8
Current wind is above 110° avg. (7.3)
Visibility9999 m
Phenomena:Shallow Snow Grains
Clouds:N/A
Expected CloudBase > 800 ft AGL from Temp-Dew spread
CeilingNone
Temp14°C
Dew Point12°C (88% RH)
AAT11.0°C
QNH1009 hPa
Raw Report
METAR CYBQ 241600Z AUTO 11010KT 9SM 14/12 A2981 RMK CLD MISG SLP105
DENSITY ALT 1000FT=

Extra information for CYBQ:More info

Social comments